sensor_id;sensor_type;location;lat;lon;timestamp;P1;durP1;ratioP1;P2;durP2;ratioP2
10701;SDS011;5402;50.004;8.246;2023-03-31T00:02:01;4.90;;;1.80;;
10701;SDS011;5402;50.004;8.246;2023-03-31T00:04:31;5.30;;;1.87;;
10701;SDS011;5402;50.004;8.246;2023-03-31T00:06:58;3.60;;;1.67;;
10701;SDS011;5402;50.004;8.246;2023-03-31T00:09:25;5.43;;;1.80;;
10701;SDS011;5402;50.004;8.246;2023-03-31T00:11:54;4.23;;;1.87;;
10701;SDS011;5402;50.004;8.246;2023-03-31T00:14:20;5.93;;;1.60;;
10701;SDS011;5402;50.004;8.246;2023-03-31T00:16:48;6.83;;;1.87;;
10701;SDS011;5402;50.004;8.246;2023-03-31T00:19:15;3.17;;;2.00;;
10701;SDS011;5402;50.004;8.246;2023-03-31T00:21:46;4.50;;;1.60;;
10701;SDS011;5402;50.004;8.246;2023-03-31T00:24:15;5.73;;;1.63;;
10701;SDS011;5402;50.004;8.246;2023-03-31T00:26:42;3.67;;;2.27;;
10701;SDS011;5402;50.004;8.246;2023-03-31T00:29:10;4.87;;;2.20;;
10701;SDS011;5402;50.004;8.246;2023-03-31T00:31:38;4.13;;;1.80;;
10701;SDS011;5402;50.004;8.246;2023-03-31T00:34:06;3.53;;;1.60;;
10701;SDS011;5402;50.004;8.246;2023-03-31T00:36:33;5.63;;;2.03;;
10701;SDS011;5402;50.004;8.246;2023-03-31T00:39:11;4.63;;;2.17;;
10701;SDS011;5402;50.004;8.246;2023-03-31T00:41:38;7.03;;;1.73;;
10701;SDS011;5402;50.004;8.246;2023-03-31T00:44:07;5.27;;;1.73;;
10701;SDS011;5402;50.004;8.246;2023-03-31T00:46:37;3.13;;;1.40;;
10701;SDS011;5402;50.004;8.246;2023-03-31T00:49:13;4.97;;;1.30;;
10701;SDS011;5402;50.004;8.246;2023-03-31T00:51:44;2.90;;;1.07;;
10701;SDS011;5402;50.004;8.246;2023-03-31T00:54:13;0.00;;;0.00;;
10701;SDS011;5402;50.004;8.246;2023-03-31T00:56:43;0.00;;;0.00;;
10701;SDS011;5402;50.004;8.246;2023-03-31T00:59:13;0.00;;;0.00;;
10701;SDS011;5402;50.004;8.246;2023-03-31T01:01:41;0.00;;;0.00;;
10701;SDS011;5402;50.004;8.246;2023-03-31T01:04:12;0.00;;;0.00;;
10701;SDS011;5402;50.004;8.246;2023-03-31T01:06:42;0.00;;;0.00;;
10701;SDS011;5402;50.004;8.246;2023-03-31T01:09:14;0.00;;;0.00;;
10701;SDS011;5402;50.004;8.246;2023-03-31T01:11:42;0.00;;;0.00;;
10701;SDS011;5402;50.004;8.246;2023-03-31T01:14:10;0.00;;;0.00;;
10701;SDS011;5402;50.004;8.246;2023-03-31T01:16:38;0.00;;;0.00;;
10701;SDS011;5402;50.004;8.246;2023-03-31T01:19:05;0.00;;;0.00;;
10701;SDS011;5402;50.004;8.246;2023-03-31T01:21:48;0.00;;;0.00;;
10701;SDS011;5402;50.004;8.246;2023-03-31T01:24:41;0.00;;;0.00;;
10701;SDS011;5402;50.004;8.246;2023-03-31T01:27:52;0.00;;;0.00;;
10701;SDS011;5402;50.004;8.246;2023-03-31T01:30:37;0.00;;;0.00;;
10701;SDS011;5402;50.004;8.246;2023-03-31T01:36:22;0.00;;;0.00;;
10701;SDS011;5402;50.004;8.246;2023-03-31T01:42:07;0.00;;;0.00;;
10701;SDS011;5402;50.004;8.246;2023-03-31T01:44:39;0.00;;;0.00;;
10701;SDS011;5402;50.004;8.246;2023-03-31T01:47:13;0.00;;;0.00;;
10701;SDS011;5402;50.004;8.246;2023-03-31T01:49:48;0.00;;;0.00;;
10701;SDS011;5402;50.004;8.246;2023-03-31T01:52:21;0.00;;;0.00;;
10701;SDS011;5402;50.004;8.246;2023-03-31T01:54:51;0.00;;;0.00;;
10701;SDS011;5402;50.004;8.246;2023-03-31T01:57:23;0.00;;;0.00;;
10701;SDS011;5402;50.004;8.246;2023-03-31T01:59:56;0.00;;;0.00;;
10701;SDS011;5402;50.004;8.246;2023-03-31T02:02:28;0.00;;;0.00;;
10701;SDS011;5402;50.004;8.246;2023-03-31T02:04:58;0.00;;;0.00;;
10701;SDS011;5402;50.004;8.246;2023-03-31T02:07:30;0.00;;;0.00;;
10701;SDS011;5402;50.004;8.246;2023-03-31T02:10:00;0.00;;;0.00;;
10701;SDS011;5402;50.004;8.246;2023-03-31T02:12:32;0.00;;;0.00;;
10701;SDS011;5402;50.004;8.246;2023-03-31T02:15:01;0.00;;;0.00;;
10701;SDS011;5402;50.004;8.246;2023-03-31T02:17:33;0.00;;;0.00;;
10701;SDS011;5402;50.004;8.246;2023-03-31T02:20:04;0.00;;;0.00;;
10701;SDS011;5402;50.004;8.246;2023-03-31T02:22:36;0.00;;;0.00;;
10701;SDS011;5402;50.004;8.246;2023-03-31T02:25:05;0.00;;;0.00;;
10701;SDS011;5402;50.004;8.246;2023-03-31T02:27:37;0.00;;;0.00;;
10701;SDS011;5402;50.004;8.246;2023-03-31T02:30:07;0.00;;;0.00;;
10701;SDS011;5402;50.004;8.246;2023-03-31T02:32:35;0.00;;;0.00;;
10701;SDS011;5402;50.004;8.246;2023-03-31T02:35:03;0.00;;;0.00;;
10701;SDS011;5402;50.004;8.246;2023-03-31T02:37:31;0.00;;;0.00;;
10701;SDS011;5402;50.004;8.246;2023-03-31T02:40:00;0.00;;;0.00;;
10701;SDS011;5402;50.004;8.246;2023-03-31T02:42:32;0.00;;;0.00;;
10701;SDS011;5402;50.004;8.246;2023-03-31T02:45:02;0.00;;;0.00;;
10701;SDS011;5402;50.004;8.246;2023-03-31T02:47:31;0.00;;;0.00;;
10701;SDS011;5402;50.004;8.246;2023-03-31T02:49:59;0.00;;;0.00;;
10701;SDS011;5402;50.004;8.246;2023-03-31T02:52:40;0.00;;;0.00;;
10701;SDS011;5402;50.004;8.246;2023-03-31T02:55:19;0.00;;;0.00;;
10701;SDS011;5402;50.004;8.246;2023-03-31T02:58:24;0.00;;;0.00;;
10701;SDS011;5402;50.004;8.246;2023-03-31T03:01:07;0.00;;;0.00;;
10701;SDS011;5402;50.004;8.246;2023-03-31T03:03:45;0.00;;;0.00;;
10701;SDS011;5402;50.004;8.246;2023-03-31T03:06:26;0.00;;;0.00;;
10701;SDS011;5402;50.004;8.246;2023-03-31T03:09:12;0.00;;;0.00;;
10701;SDS011;5402;50.004;8.246;2023-03-31T03:11:50;0.00;;;0.00;;
10701;SDS011;5402;50.004;8.246;2023-03-31T03:14:24;0.00;;;0.00;;
10701;SDS011;5402;50.004;8.246;2023-03-31T03:16:58;0.00;;;0.00;;
10701;SDS011;5402;50.004;8.246;2023-03-31T03:19:27;0.00;;;0.00;;
10701;SDS011;5402;50.004;8.246;2023-03-31T03:21:54;0.00;;;0.00;;
10701;SDS011;5402;50.004;8.246;2023-03-31T03:24:22;0.00;;;0.00;;
10701;SDS011;5402;50.004;8.246;2023-03-31T03:26:53;0.00;;;0.00;;
10701;SDS011;5402;50.004;8.246;2023-03-31T03:29:20;0.00;;;0.00;;
10701;SDS011;5402;50.004;8.246;2023-03-31T03:31:47;0.00;;;0.00;;
10701;SDS011;5402;50.004;8.246;2023-03-31T03:34:15;0.00;;;0.00;;
10701;SDS011;5402;50.004;8.246;2023-03-31T03:36:44;0.00;;;0.00;;
10701;SDS011;5402;50.004;8.246;2023-03-31T03:39:12;0.00;;;0.00;;
10701;SDS011;5402;50.004;8.246;2023-03-31T03:41:39;0.00;;;0.00;;
10701;SDS011;5402;50.004;8.246;2023-03-31T03:44:06;0.00;;;0.00;;
10701;SDS011;5402;50.004;8.246;2023-03-31T03:46:32;0.00;;;0.00;;
10701;SDS011;5402;50.004;8.246;2023-03-31T03:49:01;0.00;;;0.00;;
10701;SDS011;5402;50.004;8.246;2023-03-31T03:51:29;0.00;;;0.00;;
10701;SDS011;5402;50.004;8.246;2023-03-31T03:53:56;0.00;;;0.00;;
10701;SDS011;5402;50.004;8.246;2023-03-31T03:56:23;0.00;;;0.00;;
10701;SDS011;5402;50.004;8.246;2023-03-31T03:58:50;0.00;;;0.00;;
10701;SDS011;5402;50.004;8.246;2023-03-31T04:01:17;0.00;;;0.00;;
10701;SDS011;5402;50.004;8.246;2023-03-31T04:03:43;0.00;;;0.00;;
10701;SDS011;5402;50.004;8.246;2023-03-31T04:06:10;0.00;;;0.00;;
10701;SDS011;5402;50.004;8.246;2023-03-31T04:08:41;0.00;;;0.00;;
10701;SDS011;5402;50.004;8.246;2023-03-31T04:11:10;0.00;;;0.00;;
10701;SDS011;5402;50.004;8.246;2023-03-31T04:13:39;0.00;;;0.00;;
10701;SDS011;5402;50.004;8.246;2023-03-31T04:16:06;0.00;;;0.00;;
10701;SDS011;5402;50.004;8.246;2023-03-31T04:18:33;0.00;;;0.00;;
10701;SDS011;5402;50.004;8.246;2023-03-31T04:21:01;0.00;;;0.00;;
10701;SDS011;5402;50.004;8.246;2023-03-31T04:23:29;0.00;;;0.00;;
10701;SDS011;5402;50.004;8.246;2023-03-31T04:25:57;0.00;;;0.00;;
10701;SDS011;5402;50.004;8.246;2023-03-31T04:28:24;0.00;;;0.00;;
10701;SDS011;5402;50.004;8.246;2023-03-31T04:30:58;0.00;;;0.00;;
10701;SDS011;5402;50.004;8.246;2023-03-31T04:33:25;0.00;;;0.00;;
10701;SDS011;5402;50.004;8.246;2023-03-31T04:35:52;0.00;;;0.00;;
10701;SDS011;5402;50.004;8.246;2023-03-31T04:38:19;0.00;;;0.00;;
10701;SDS011;5402;50.004;8.246;2023-03-31T04:40:48;0.00;;;0.00;;
10701;SDS011;5402;50.004;8.246;2023-03-31T04:43:17;0.00;;;0.00;;
10701;SDS011;5402;50.004;8.246;2023-03-31T04:45:45;0.00;;;0.00;;
10701;SDS011;5402;50.004;8.246;2023-03-31T04:48:12;0.00;;;0.00;;
10701;SDS011;5402;50.004;8.246;2023-03-31T04:50:38;0.00;;;0.00;;
10701;SDS011;5402;50.004;8.246;2023-03-31T04:53:06;2.00;;;0.80;;
10701;SDS011;5402;50.004;8.246;2023-03-31T04:55:33;1.07;;;0.97;;
10701;SDS011;5402;50.004;8.246;2023-03-31T04:58:00;5.37;;;1.20;;
10701;SDS011;5402;50.004;8.246;2023-03-31T05:00:28;2.57;;;1.10;;
10701;SDS011;5402;50.004;8.246;2023-03-31T05:02:55;3.10;;;1.00;;
10701;SDS011;5402;50.004;8.246;2023-03-31T05:05:22;2.33;;;0.60;;
10701;SDS011;5402;50.004;8.246;2023-03-31T05:07:48;3.50;;;0.80;;
10701;SDS011;5402;50.004;8.246;2023-03-31T05:10:15;3.43;;;1.40;;
10701;SDS011;5402;50.004;8.246;2023-03-31T05:12:42;1.53;;;1.13;;
10701;SDS011;5402;50.004;8.246;2023-03-31T05:15:09;1.33;;;1.10;;
10701;SDS011;5402;50.004;8.246;2023-03-31T05:17:37;1.00;;;0.80;;
10701;SDS011;5402;50.004;8.246;2023-03-31T05:20:04;1.00;;;0.90;;
10701;SDS011;5402;50.004;8.246;2023-03-31T05:22:33;0.90;;;0.90;;
10701;SDS011;5402;50.004;8.246;2023-03-31T05:25:00;1.00;;;0.80;;
10701;SDS011;5402;50.004;8.246;2023-03-31T05:27:28;1.17;;;1.00;;
10701;SDS011;5402;50.004;8.246;2023-03-31T05:29:55;4.23;;;1.23;;
10701;SDS011;5402;50.004;8.246;2023-03-31T05:32:22;0.40;;;0.40;;
10701;SDS011;5402;50.004;8.246;2023-03-31T05:34:50;1.70;;;1.00;;
10701;SDS011;5402;50.004;8.246;2023-03-31T05:37:21;2.97;;;1.50;;
10701;SDS011;5402;50.004;8.246;2023-03-31T05:39:47;1.27;;;0.83;;
10701;SDS011;5402;50.004;8.246;2023-03-31T05:42:14;0.70;;;0.70;;
10701;SDS011;5402;50.004;8.246;2023-03-31T05:44:41;4.13;;;0.97;;
10701;SDS011;5402;50.004;8.246;2023-03-31T05:47:08;0.70;;;0.67;;
10701;SDS011;5402;50.004;8.246;2023-03-31T05:49:34;0.00;;;0.00;;
10701;SDS011;5402;50.004;8.246;2023-03-31T05:52:03;0.00;;;0.00;;
10701;SDS011;5402;50.004;8.246;2023-03-31T05:54:31;0.00;;;0.00;;
10701;SDS011;5402;50.004;8.246;2023-03-31T05:56:58;0.00;;;0.00;;
10701;SDS011;5402;50.004;8.246;2023-03-31T05:59:24;0.00;;;0.00;;
10701;SDS011;5402;50.004;8.246;2023-03-31T06:01:52;0.00;;;0.00;;
10701;SDS011;5402;50.004;8.246;2023-03-31T06:04:18;0.00;;;0.00;;
10701;SDS011;5402;50.004;8.246;2023-03-31T06:06:45;0.00;;;0.00;;
10701;SDS011;5402;50.004;8.246;2023-03-31T06:09:15;0.00;;;0.00;;
10701;SDS011;5402;50.004;8.246;2023-03-31T06:11:42;0.00;;;0.00;;
10701;SDS011;5402;50.004;8.246;2023-03-31T06:14:10;0.00;;;0.00;;
10701;SDS011;5402;50.004;8.246;2023-03-31T06:16:36;0.00;;;0.00;;
10701;SDS011;5402;50.004;8.246;2023-03-31T06:19:03;0.00;;;0.00;;
10701;SDS011;5402;50.004;8.246;2023-03-31T06:21:30;0.00;;;0.00;;
10701;SDS011;5402;50.004;8.246;2023-03-31T06:23:57;0.00;;;0.00;;
10701;SDS011;5402;50.004;8.246;2023-03-31T06:26:27;0.00;;;0.00;;
10701;SDS011;5402;50.004;8.246;2023-03-31T06:28:54;0.00;;;0.00;;
10701;SDS011;5402;50.004;8.246;2023-03-31T06:31:21;0.00;;;0.00;;
10701;SDS011;5402;50.004;8.246;2023-03-31T06:33:49;0.00;;;0.00;;
10701;SDS011;5402;50.004;8.246;2023-03-31T06:36:17;0.00;;;0.00;;
10701;SDS011;5402;50.004;8.246;2023-03-31T06:38:46;0.00;;;0.00;;
10701;SDS011;5402;50.004;8.246;2023-03-31T06:41:14;0.00;;;0.00;;
10701;SDS011;5402;50.004;8.246;2023-03-31T06:43:43;0.00;;;0.00;;
10701;SDS011;5402;50.004;8.246;2023-03-31T06:46:10;0.00;;;0.00;;
10701;SDS011;5402;50.004;8.246;2023-03-31T06:48:44;0.00;;;0.00;;
10701;SDS011;5402;50.004;8.246;2023-03-31T06:51:11;0.00;;;0.00;;
10701;SDS011;5402;50.004;8.246;2023-03-31T06:53:41;0.00;;;0.00;;
10701;SDS011;5402;50.004;8.246;2023-03-31T06:56:08;0.00;;;0.00;;
10701;SDS011;5402;50.004;8.246;2023-03-31T06:58:35;0.00;;;0.00;;
10701;SDS011;5402;50.004;8.246;2023-03-31T07:01:03;0.00;;;0.00;;
10701;SDS011;5402;50.004;8.246;2023-03-31T07:03:31;0.00;;;0.00;;
10701;SDS011;5402;50.004;8.246;2023-03-31T07:05:58;0.00;;;0.00;;
10701;SDS011;5402;50.004;8.246;2023-03-31T07:08:25;0.00;;;0.00;;
10701;SDS011;5402;50.004;8.246;2023-03-31T07:10:53;0.00;;;0.00;;
10701;SDS011;5402;50.004;8.246;2023-03-31T07:13:22;0.00;;;0.00;;
10701;SDS011;5402;50.004;8.246;2023-03-31T07:15:49;0.00;;;0.00;;
10701;SDS011;5402;50.004;8.246;2023-03-31T07:18:18;0.00;;;0.00;;
10701;SDS011;5402;50.004;8.246;2023-03-31T07:20:46;0.00;;;0.00;;
10701;SDS011;5402;50.004;8.246;2023-03-31T07:23:14;0.00;;;0.00;;
10701;SDS011;5402;50.004;8.246;2023-03-31T07:25:41;0.00;;;0.00;;
10701;SDS011;5402;50.004;8.246;2023-03-31T07:28:08;0.00;;;0.00;;
10701;SDS011;5402;50.004;8.246;2023-03-31T07:30:35;0.00;;;0.00;;
10701;SDS011;5402;50.004;8.246;2023-03-31T07:33:02;0.00;;;0.00;;
10701;SDS011;5402;50.004;8.246;2023-03-31T07:35:37;0.00;;;0.00;;
10701;SDS011;5402;50.004;8.246;2023-03-31T07:38:06;2.27;;;2.17;;
10701;SDS011;5402;50.004;8.246;2023-03-31T07:40:34;0.00;;;0.00;;
10701;SDS011;5402;50.004;8.246;2023-03-31T07:43:03;0.00;;;0.00;;
10701;SDS011;5402;50.004;8.246;2023-03-31T07:45:30;0.00;;;0.00;;
10701;SDS011;5402;50.004;8.246;2023-03-31T07:47:58;0.00;;;0.00;;
10701;SDS011;5402;50.004;8.246;2023-03-31T07:50:25;0.00;;;0.00;;
10701;SDS011;5402;50.004;8.246;2023-03-31T07:52:53;0.00;;;0.00;;
10701;SDS011;5402;50.004;8.246;2023-03-31T07:55:20;0.00;;;0.00;;
10701;SDS011;5402;50.004;8.246;2023-03-31T07:57:47;0.00;;;0.00;;
10701;SDS011;5402;50.004;8.246;2023-03-31T08:00:15;0.00;;;0.00;;
10701;SDS011;5402;50.004;8.246;2023-03-31T08:02:43;0.00;;;0.00;;
10701;SDS011;5402;50.004;8.246;2023-03-31T08:05:13;0.00;;;0.00;;
10701;SDS011;5402;50.004;8.246;2023-03-31T08:07:42;0.33;;;0.33;;
10701;SDS011;5402;50.004;8.246;2023-03-31T08:10:12;0.00;;;0.00;;
10701;SDS011;5402;50.004;8.246;2023-03-31T08:12:41;0.00;;;0.00;;
10701;SDS011;5402;50.004;8.246;2023-03-31T08:15:08;0.00;;;0.00;;
10701;SDS011;5402;50.004;8.246;2023-03-31T08:17:38;0.00;;;0.00;;
10701;SDS011;5402;50.004;8.246;2023-03-31T08:20:08;0.00;;;0.00;;
10701;SDS011;5402;50.004;8.246;2023-03-31T08:22:35;0.00;;;0.00;;
10701;SDS011;5402;50.004;8.246;2023-03-31T08:25:07;0.00;;;0.00;;
10701;SDS011;5402;50.004;8.246;2023-03-31T08:27:39;0.00;;;0.00;;
10701;SDS011;5402;50.004;8.246;2023-03-31T08:30:07;0.00;;;0.00;;
10701;SDS011;5402;50.004;8.246;2023-03-31T08:32:35;0.00;;;0.00;;
10701;SDS011;5402;50.004;8.246;2023-03-31T08:35:03;0.20;;;0.20;;
10701;SDS011;5402;50.004;8.246;2023-03-31T08:37:30;0.00;;;0.00;;
10701;SDS011;5402;50.004;8.246;2023-03-31T08:39:57;0.00;;;0.00;;
10701;SDS011;5402;50.004;8.246;2023-03-31T08:42:27;0.00;;;0.00;;
10701;SDS011;5402;50.004;8.246;2023-03-31T08:45:03;0.00;;;0.00;;
10701;SDS011;5402;50.004;8.246;2023-03-31T08:47:36;0.00;;;0.00;;
10701;SDS011;5402;50.004;8.246;2023-03-31T08:50:04;0.00;;;0.00;;
10701;SDS011;5402;50.004;8.246;2023-03-31T08:52:38;0.00;;;0.00;;
10701;SDS011;5402;50.004;8.246;2023-03-31T08:55:10;0.00;;;0.00;;
10701;SDS011;5402;50.004;8.246;2023-03-31T08:57:42;0.00;;;0.00;;
10701;SDS011;5402;50.004;8.246;2023-03-31T09:00:18;0.00;;;0.00;;
10701;SDS011;5402;50.004;8.246;2023-03-31T09:02:49;0.00;;;0.00;;
10701;SDS011;5402;50.004;8.246;2023-03-31T09:05:26;0.00;;;0.00;;
10701;SDS011;5402;50.004;8.246;2023-03-31T09:08:11;3.40;;;1.20;;
10701;SDS011;5402;50.004;8.246;2023-03-31T09:10:46;1.60;;;1.50;;
10701;SDS011;5402;50.004;8.246;2023-03-31T09:13:28;1.73;;;1.10;;
10701;SDS011;5402;50.004;8.246;2023-03-31T09:16:12;1.30;;;1.20;;
10701;SDS011;5402;50.004;8.246;2023-03-31T09:18:41;1.83;;;1.43;;
10701;SDS011;5402;50.004;8.246;2023-03-31T09:21:12;1.73;;;1.57;;
10701;SDS011;5402;50.004;8.246;2023-03-31T09:23:44;2.23;;;1.77;;
10701;SDS011;5402;50.004;8.246;2023-03-31T09:26:19;3.90;;;2.10;;
10701;SDS011;5402;50.004;8.246;2023-03-31T09:28:50;2.73;;;2.13;;
10701;SDS011;5402;50.004;8.246;2023-03-31T09:31:22;3.97;;;1.80;;
10701;SDS011;5402;50.004;8.246;2023-03-31T09:33:50;4.53;;;1.73;;
10701;SDS011;5402;50.004;8.246;2023-03-31T09:36:22;2.30;;;1.90;;
10701;SDS011;5402;50.004;8.246;2023-03-31T09:38:49;5.40;;;1.93;;
10701;SDS011;5402;50.004;8.246;2023-03-31T09:41:16;5.00;;;1.60;;
10701;SDS011;5402;50.004;8.246;2023-03-31T09:43:44;2.40;;;1.90;;
10701;SDS011;5402;50.004;8.246;2023-03-31T09:46:15;4.30;;;1.70;;
10701;SDS011;5402;50.004;8.246;2023-03-31T09:48:49;4.27;;;1.70;;
10701;SDS011;5402;50.004;8.246;2023-03-31T09:51:22;5.23;;;1.77;;
10701;SDS011;5402;50.004;8.246;2023-03-31T09:53:55;6.27;;;1.97;;
10701;SDS011;5402;50.004;8.246;2023-03-31T09:56:31;3.87;;;1.97;;
10701;SDS011;5402;50.004;8.246;2023-03-31T09:59:02;5.93;;;2.00;;
10701;SDS011;5402;50.004;8.246;2023-03-31T10:01:29;10.33;;;2.10;;
10701;SDS011;5402;50.004;8.246;2023-03-31T10:03:57;7.17;;;1.83;;
10701;SDS011;5402;50.004;8.246;2023-03-31T10:06:24;6.47;;;2.27;;
10701;SDS011;5402;50.004;8.246;2023-03-31T10:08:53;8.77;;;3.17;;
10701;SDS011;5402;50.004;8.246;2023-03-31T10:11:23;3.57;;;1.50;;
10701;SDS011;5402;50.004;8.246;2023-03-31T10:13:51;0.00;;;0.00;;
10701;SDS011;5402;50.004;8.246;2023-03-31T10:16:27;0.00;;;0.00;;
10701;SDS011;5402;50.004;8.246;2023-03-31T10:19:09;0.00;;;0.00;;
10701;SDS011;5402;50.004;8.246;2023-03-31T10:21:38;0.00;;;0.00;;
10701;SDS011;5402;50.004;8.246;2023-03-31T10:24:07;0.00;;;0.00;;
10701;SDS011;5402;50.004;8.246;2023-03-31T10:26:34;0.00;;;0.00;;
10701;SDS011;5402;50.004;8.246;2023-03-31T10:29:01;0.00;;;0.00;;
10701;SDS011;5402;50.004;8.246;2023-03-31T10:31:37;0.00;;;0.00;;
10701;SDS011;5402;50.004;8.246;2023-03-31T10:34:06;0.00;;;0.00;;
10701;SDS011;5402;50.004;8.246;2023-03-31T10:36:35;0.00;;;0.00;;
10701;SDS011;5402;50.004;8.246;2023-03-31T10:39:04;0.00;;;0.00;;
10701;SDS011;5402;50.004;8.246;2023-03-31T10:41:32;0.00;;;0.00;;
10701;SDS011;5402;50.004;8.246;2023-03-31T10:44:00;0.00;;;0.00;;
10701;SDS011;5402;50.004;8.246;2023-03-31T10:46:38;0.00;;;0.00;;
10701;SDS011;5402;50.004;8.246;2023-03-31T10:49:14;0.00;;;0.00;;
10701;SDS011;5402;50.004;8.246;2023-03-31T10:51:50;0.00;;;0.00;;
10701;SDS011;5402;50.004;8.246;2023-03-31T10:54:18;0.00;;;0.00;;
10701;SDS011;5402;50.004;8.246;2023-03-31T10:56:46;0.00;;;0.00;;
10701;SDS011;5402;50.004;8.246;2023-03-31T10:59:19;0.00;;;0.00;;
10701;SDS011;5402;50.004;8.246;2023-03-31T11:02:00;0.00;;;0.00;;
10701;SDS011;5402;50.004;8.246;2023-03-31T11:04:48;0.00;;;0.00;;
10701;SDS011;5402;50.004;8.246;2023-03-31T11:07:31;0.00;;;0.00;;
10701;SDS011;5402;50.004;8.246;2023-03-31T11:10:17;0.00;;;0.00;;
10701;SDS011;5402;50.004;8.246;2023-03-31T11:12:51;0.00;;;0.00;;
10701;SDS011;5402;50.004;8.246;2023-03-31T11:15:22;0.00;;;0.00;;
10701;SDS011;5402;50.004;8.246;2023-03-31T11:17:59;0.00;;;0.00;;
10701;SDS011;5402;50.004;8.246;2023-03-31T11:20:35;0.00;;;0.00;;
10701;SDS011;5402;50.004;8.246;2023-03-31T11:23:09;0.00;;;0.00;;
10701;SDS011;5402;50.004;8.246;2023-03-31T11:25:47;0.00;;;0.00;;
10701;SDS011;5402;50.004;8.246;2023-03-31T11:28:20;0.00;;;0.00;;
10701;SDS011;5402;50.004;8.246;2023-03-31T11:30:52;0.00;;;0.00;;
10701;SDS011;5402;50.004;8.246;2023-03-31T11:33:34;2.20;;;1.00;;
10701;SDS011;5402;50.004;8.246;2023-03-31T11:36:18;7.70;;;1.30;;
10701;SDS011;5402;50.004;8.246;2023-03-31T11:38:53;4.17;;;1.50;;
10701;SDS011;5402;50.004;8.246;2023-03-31T11:41:36;1.43;;;0.67;;
10701;SDS011;5402;50.004;8.246;2023-03-31T11:44:08;3.23;;;1.00;;
10701;SDS011;5402;50.004;8.246;2023-03-31T11:46:38;4.00;;;1.20;;
10701;SDS011;5402;50.004;8.246;2023-03-31T11:49:10;10.03;;;1.53;;
10701;SDS011;5402;50.004;8.246;2023-03-31T11:51:46;5.70;;;1.37;;
10701;SDS011;5402;50.004;8.246;2023-03-31T11:54:17;5.73;;;1.30;;
10701;SDS011;5402;50.004;8.246;2023-03-31T11:56:48;6.17;;;1.40;;
10701;SDS011;5402;50.004;8.246;2023-03-31T11:59:17;2.83;;;1.23;;
10701;SDS011;5402;50.004;8.246;2023-03-31T12:01:47;2.03;;;1.37;;
10701;SDS011;5402;50.004;8.246;2023-03-31T12:04:21;2.70;;;1.23;;
10701;SDS011;5402;50.004;8.246;2023-03-31T12:06:57;6.87;;;1.50;;
10701;SDS011;5402;50.004;8.246;2023-03-31T12:09:29;5.00;;;1.70;;
10701;SDS011;5402;50.004;8.246;2023-03-31T12:12:03;6.30;;;1.53;;
10701;SDS011;5402;50.004;8.246;2023-03-31T12:14:35;6.77;;;1.80;;
10701;SDS011;5402;50.004;8.246;2023-03-31T12:17:09;0.00;;;0.00;;
10701;SDS011;5402;50.004;8.246;2023-03-31T12:19:39;0.00;;;0.00;;
10701;SDS011;5402;50.004;8.246;2023-03-31T12:22:14;0.00;;;0.00;;
10701;SDS011;5402;50.004;8.246;2023-03-31T12:24:44;0.00;;;0.00;;
10701;SDS011;5402;50.004;8.246;2023-03-31T12:27:12;0.00;;;0.00;;
10701;SDS011;5402;50.004;8.246;2023-03-31T12:29:44;0.00;;;0.00;;
10701;SDS011;5402;50.004;8.246;2023-03-31T12:32:17;0.00;;;0.00;;
10701;SDS011;5402;50.004;8.246;2023-03-31T12:34:47;0.00;;;0.00;;
10701;SDS011;5402;50.004;8.246;2023-03-31T12:40:48;0.00;;;0.00;;
10701;SDS011;5402;50.004;8.246;2023-03-31T12:43:25;0.00;;;0.00;;
10701;SDS011;5402;50.004;8.246;2023-03-31T12:46:23;0.00;;;0.00;;
10701;SDS011;5402;50.004;8.246;2023-03-31T12:49:19;0.00;;;0.00;;
10701;SDS011;5402;50.004;8.246;2023-03-31T12:51:57;0.00;;;0.00;;
10701;SDS011;5402;50.004;8.246;2023-03-31T12:57:21;0.00;;;0.00;;
10701;SDS011;5402;50.004;8.246;2023-03-31T13:02:45;0.00;;;0.00;;
10701;SDS011;5402;50.004;8.246;2023-03-31T13:11:13;2.37;;;0.27;;
10701;SDS011;5402;50.004;8.246;2023-03-31T13:13:44;1.53;;;0.53;;
10701;SDS011;5402;50.004;8.246;2023-03-31T13:16:18;0.40;;;0.30;;
10701;SDS011;5402;50.004;8.246;2023-03-31T13:18:49;0.30;;;0.20;;
10701;SDS011;5402;50.004;8.246;2023-03-31T13:21:16;0.67;;;0.20;;
10701;SDS011;5402;50.004;8.246;2023-03-31T13:23:44;0.10;;;0.10;;
10701;SDS011;5402;50.004;8.246;2023-03-31T13:34:48;0.30;;;0.20;;
10701;SDS011;5402;50.004;8.246;2023-03-31T13:37:27;0.20;;;0.20;;
10701;SDS011;5402;50.004;8.246;2023-03-31T13:40:15;0.67;;;0.23;;
10701;SDS011;5402;50.004;8.246;2023-03-31T13:43:05;1.23;;;0.43;;
10701;SDS011;5402;50.004;8.246;2023-03-31T13:48:52;1.53;;;0.60;;
10701;SDS011;5402;50.004;8.246;2023-03-31T13:51:34;4.03;;;1.23;;
10701;SDS011;5402;50.004;8.246;2023-03-31T14:00:00;2.70;;;0.90;;
10701;SDS011;5402;50.004;8.246;2023-03-31T14:02:56;1.77;;;0.90;;
10701;SDS011;5402;50.004;8.246;2023-03-31T14:05:40;3.60;;;1.10;;
10701;SDS011;5402;50.004;8.246;2023-03-31T14:08:10;3.23;;;1.10;;
10701;SDS011;5402;50.004;8.246;2023-03-31T14:10:40;1.50;;;0.70;;
10701;SDS011;5402;50.004;8.246;2023-03-31T14:13:09;4.10;;;1.20;;
10701;SDS011;5402;50.004;8.246;2023-03-31T14:15:39;4.87;;;1.37;;
10701;SDS011;5402;50.004;8.246;2023-03-31T14:18:09;3.33;;;1.10;;
10701;SDS011;5402;50.004;8.246;2023-03-31T14:20:41;4.20;;;1.47;;
10701;SDS011;5402;50.004;8.246;2023-03-31T14:23:18;4.60;;;1.30;;
10701;SDS011;5402;50.004;8.246;2023-03-31T14:25:57;5.57;;;1.10;;
10701;SDS011;5402;50.004;8.246;2023-03-31T14:28:35;7.40;;;1.43;;
10701;SDS011;5402;50.004;8.246;2023-03-31T14:31:17;4.57;;;1.30;;
10701;SDS011;5402;50.004;8.246;2023-03-31T14:33:52;3.43;;;1.10;;
10701;SDS011;5402;50.004;8.246;2023-03-31T14:36:36;2.80;;;1.43;;
10701;SDS011;5402;50.004;8.246;2023-03-31T14:39:11;4.00;;;1.60;;
10701;SDS011;5402;50.004;8.246;2023-03-31T14:41:39;3.90;;;1.10;;
10701;SDS011;5402;50.004;8.246;2023-03-31T14:44:11;5.17;;;1.20;;
10701;SDS011;5402;50.004;8.246;2023-03-31T14:46:40;8.30;;;1.20;;
10701;SDS011;5402;50.004;8.246;2023-03-31T14:49:14;4.73;;;1.17;;
10701;SDS011;5402;50.004;8.246;2023-03-31T14:51:46;4.10;;;1.20;;
10701;SDS011;5402;50.004;8.246;2023-03-31T14:54:14;4.17;;;1.20;;
10701;SDS011;5402;50.004;8.246;2023-03-31T14:56:43;3.43;;;1.00;;
10701;SDS011;5402;50.004;8.246;2023-03-31T14:59:12;2.70;;;1.40;;
10701;SDS011;5402;50.004;8.246;2023-03-31T15:01:43;3.80;;;1.23;;
10701;SDS011;5402;50.004;8.246;2023-03-31T15:04:13;2.43;;;1.30;;
10701;SDS011;5402;50.004;8.246;2023-03-31T15:06:43;2.23;;;1.23;;
10701;SDS011;5402;50.004;8.246;2023-03-31T15:09:14;2.13;;;1.00;;
10701;SDS011;5402;50.004;8.246;2023-03-31T15:11:46;3.00;;;0.90;;
10701;SDS011;5402;50.004;8.246;2023-03-31T15:14:18;5.17;;;1.20;;
10701;SDS011;5402;50.004;8.246;2023-03-31T15:16:45;3.50;;;1.00;;
10701;SDS011;5402;50.004;8.246;2023-03-31T15:19:15;4.00;;;1.10;;
10701;SDS011;5402;50.004;8.246;2023-03-31T15:21:44;3.30;;;0.90;;
10701;SDS011;5402;50.004;8.246;2023-03-31T15:24:18;4.40;;;1.00;;
10701;SDS011;5402;50.004;8.246;2023-03-31T15:26:46;1.63;;;0.90;;
10701;SDS011;5402;50.004;8.246;2023-03-31T15:29:20;5.03;;;1.10;;
10701;SDS011;5402;50.004;8.246;2023-03-31T15:31:50;3.13;;;1.20;;
10701;SDS011;5402;50.004;8.246;2023-03-31T15:34:18;1.97;;;0.80;;
10701;SDS011;5402;50.004;8.246;2023-03-31T15:36:50;3.17;;;0.90;;
10701;SDS011;5402;50.004;8.246;2023-03-31T15:39:19;4.00;;;1.20;;
10701;SDS011;5402;50.004;8.246;2023-03-31T15:41:46;2.60;;;0.90;;
10701;SDS011;5402;50.004;8.246;2023-03-31T15:44:27;3.40;;;0.83;;
10701;SDS011;5402;50.004;8.246;2023-03-31T15:47:00;3.07;;;1.00;;
10701;SDS011;5402;50.004;8.246;2023-03-31T15:49:31;3.80;;;1.10;;
10701;SDS011;5402;50.004;8.246;2023-03-31T15:52:00;2.53;;;1.07;;
10701;SDS011;5402;50.004;8.246;2023-03-31T15:54:28;2.73;;;0.97;;
10701;SDS011;5402;50.004;8.246;2023-03-31T15:57:01;4.07;;;1.13;;
10701;SDS011;5402;50.004;8.246;2023-03-31T15:59:28;5.72;;;1.62;;
10701;SDS011;5402;50.004;8.246;2023-03-31T16:01:56;4.57;;;1.23;;
10701;SDS011;5402;50.004;8.246;2023-03-31T16:04:28;5.38;;;1.65;;